Time;durP1;ratioP1;P1;durP2;ratioP2;P2;SDS_P1;SDS_P2;PMS_P1;PMS_P2;Temp;Humidity;BMP_temperature;BMP_pressure;BME280_temperature;BME280_humidity;BME280_pressure;Samples;Min_cycle;Max_cycle;Signal;HPM_P1;HPM_P2
2022/07/10 00:00:06;;;;;;;14.05;2.80;;;;;;;23.95;51.18;99954.94;5062154;28;20384;-88
2022/07/10 00:02:33;;;;;;;6.05;2.65;;;;;;;23.98;51.14;99970.97;5063121;28;20025;-88
2022/07/10 00:04:59;;;;;;;5.53;2.95;;;;;;;23.93;50.96;99988.16;5060932;28;20083;-88
2022/07/10 00:07:24;;;;;;;8.05;2.85;;;;;;;23.79;51.27;99954.47;5063369;28;20495;-87
2022/07/10 00:09:49;;;;;;;4.18;2.13;;;;;;;23.92;50.87;99969.13;5067574;28;20471;-88
2022/07/10 00:12:15;;;;;;;5.80;2.83;;;;;;;23.88;50.89;99948.72;5067624;28;20029;-87
2022/07/10 00:14:40;;;;;;;4.72;2.78;;;;;;;23.95;50.52;99968.69;5063438;28;20032;-89
2022/07/10 00:17:06;;;;;;;14.18;2.58;;;;;;;23.94;50.24;99956.88;5060835;28;20402;-88
2022/07/10 00:19:31;;;;;;;3.08;2.08;;;;;;;23.79;50.38;99954.47;5063137;28;20021;-88
2022/07/10 00:21:57;;;;;;;3.15;2.03;;;;;;;23.82;50.46;99962.25;5064939;28;20085;-89
2022/07/10 00:24:22;;;;;;;4.35;2.25;;;;;;;23.82;50.28;99962.25;5063013;28;20032;-88
2022/07/10 00:26:47;;;;;;;2.50;2.05;;;;;;;23.85;49.85;99961.81;5063496;28;20090;-87
2022/07/10 00:29:16;;;;;;;6.95;2.85;;;;;;;23.85;50.36;99953.56;5064317;28;20017;-88
2022/07/10 00:31:42;;;;;;;4.30;2.33;;;;;;;23.85;50.33;99964.56;5065027;28;20108;-88
2022/07/10 00:34:08;;;;;;;7.82;2.30;;;;;;;23.71;50.40;99938.31;5063031;28;20400;-87
2022/07/10 00:36:33;;;;;;;7.15;2.60;;;;;;;23.75;50.76;99942.28;5062081;28;20043;-89
2022/07/10 00:38:58;;;;;;;3.17;2.10;;;;;;;23.78;50.74;99947.31;5063506;28;20028;-88
2022/07/10 00:41:25;;;;;;;9.63;2.70;;;;;;;23.82;50.60;99959.50;5065892;28;20035;-89
2022/07/10 00:43:58;;;;;;;3.58;2.20;;;;;;;23.77;51.21;99953.88;5062514;28;20459;-89
2022/07/10 00:46:24;;;;;;;4.60;2.22;;;;;;;23.74;50.90;99962.56;5059773;28;20025;-86
2022/07/10 00:48:52;;;;;;;5.53;2.38;;;;;;;23.73;51.15;99962.78;5060399;28;20036;-88
2022/07/10 00:51:20;;;;;;;4.35;2.13;;;;;;;23.60;51.28;99943.72;5059276;28;20049;-86
2022/07/10 00:53:46;;;;;;;6.60;2.72;;;;;;;23.59;51.68;99955.75;5057849;28;20725;-87
2022/07/10 00:56:15;;;;;;;9.23;2.80;;;;;;;23.42;51.24;99936.28;5058713;28;20553;-87
2022/07/10 00:58:41;;;;;;;3.50;1.95;;;;;;;23.45;51.59;99930.34;5066011;28;20090;-87
2022/07/10 01:01:07;;;;;;;3.53;2.55;;;;;;;23.42;51.36;99924.44;5063092;28;20032;-87
2022/07/10 01:03:32;;;;;;;12.48;2.97;;;;;;;23.56;51.07;99947.97;5060455;28;20031;-87
2022/07/10 01:05:59;;;;;;;3.88;2.42;;;;;;;23.54;51.42;99933.63;5057231;28;20550;-88
2022/07/10 01:08:25;;;;;;;8.88;2.38;;;;;;;23.57;50.93;99942.25;5057169;28;20059;-87
2022/07/10 01:10:51;;;;;;;4.45;2.50;;;;;;;23.57;51.37;99941.41;5060738;28;20555;-88
2022/07/10 01:13:17;;;;;;;9.35;2.53;;;;;;;23.58;51.41;99954.91;5059289;28;20027;-89
2022/07/10 01:15:42;;;;;;;9.10;3.00;;;;;;;23.49;51.80;99936.19;5058196;28;20513;-88
2022/07/10 01:18:08;;;;;;;6.65;3.63;;;;;;;23.34;52.06;99928.28;5056548;28;20115;-88
2022/07/10 01:20:33;;;;;;;9.48;2.30;;;;;;;23.30;52.22;99914.16;5059270;28;20086;-86
2022/07/10 01:23:01;;;;;;;8.50;3.22;;;;;;;23.40;52.39;99943.03;5052567;28;20589;-87
2022/07/10 01:25:26;;;;;;;8.05;3.10;;;;;;;23.33;53.08;99939.50;5052177;28;20060;-87
2022/07/10 01:27:52;;;;;;;13.45;3.30;;;;;;;23.06;53.33;99886.72;5053711;28;20021;-87
2022/07/10 01:30:19;;;;;;;6.00;2.65;;;;;;;23.24;53.53;99931.50;5053627;28;20474;-88
2022/07/10 01:32:45;;;;;;;4.82;2.80;;;;;;;23.01;53.67;99881.06;5052313;28;20387;-87
2022/07/10 01:35:11;;;;;;;7.75;2.90;;;;;;;22.98;54.34;99895.22;5063011;28;20057;-85
2022/07/10 01:37:39;;;;;;;5.05;3.08;;;;;;;23.14;54.78;99919.38;5060653;28;20444;-87
2022/07/10 01:40:07;;;;;;;13.77;3.70;;;;;;;23.12;55.44;99926.97;5062878;28;20048;-86
2022/07/10 01:42:33;;;;;;;10.35;3.75;;;;;;;23.14;55.42;99922.13;5059162;28;20487;-86
2022/07/10 01:44:58;;;;;;;8.48;3.47;;;;;;;23.04;55.92;99924.50;5053515;28;20031;-87
2022/07/10 01:47:25;;;;;;;5.38;2.85;;;;;;;22.83;56.50;99911.16;5053315;28;20025;-86
2022/07/10 01:49:55;;;;;;;9.68;3.65;;;;;;;22.73;56.80;99909.75;5053612;28;20029;-86
2022/07/10 01:52:21;;;;;;;16.73;3.10;;;;;;;22.69;56.89;99924.09;5053293;28;20073;-86
2022/07/10 01:54:47;;;;;;;6.82;3.08;;;;;;;22.50;57.45;99886.69;5053561;28;20032;-86
2022/07/10 01:57:13;;;;;;;7.88;2.92;;;;;;;22.61;57.43;99906.00;5053188;28;20021;-87
2022/07/10 01:59:39;;;;;;;7.65;3.80;;;;;;;22.55;57.55;99904.13;5051865;28;20032;-87
2022/07/10 02:02:05;;;;;;;6.65;3.35;;;;;;;22.45;57.61;99898.28;5053468;28;20380;-87
2022/07/10 02:04:43;;;;;;;11.73;3.42;;;;;;;22.43;57.80;99894.09;5052913;28;20036;-86
2022/07/10 02:07:17;;;;;;;6.53;3.65;;;;;;;22.39;57.96;99901.91;5055855;28;20086;-87
2022/07/10 02:09:43;;;;;;;6.15;3.10;;;;;;;22.40;57.98;99903.59;5056476;28;20028;-87
2022/07/10 02:12:11;;;;;;;8.57;3.10;;;;;;;22.52;57.77;99915.53;5055650;28;20033;-86
2022/07/10 02:14:37;;;;;;;8.82;3.40;;;;;;;22.50;57.56;99928.63;5054450;28;20079;-87
2022/07/10 02:17:04;;;;;;;9.13;3.33;;;;;;;22.42;57.91;99917.91;5060596;28;20017;-85
2022/07/10 02:19:29;;;;;;;4.13;3.10;;;;;;;22.51;57.78;99946.75;5057068;28;20032;-87
2022/07/10 02:21:55;;;;;;;8.75;3.80;;;;;;;22.49;58.05;99935.16;5058186;28;20033;-88
2022/07/10 02:24:21;;;;;;;5.53;3.03;;;;;;;22.56;58.09;99940.63;5055408;28;20029;-87
2022/07/10 02:26:46;;;;;;;4.50;2.72;;;;;;;22.51;57.56;99933.03;5054958;28;20031;-87
2022/07/10 02:29:12;;;;;;;5.57;3.38;;;;;;;22.72;57.43;99951.94;5053048;28;20067;-87
2022/07/10 02:31:40;;;;;;;10.48;3.60;;;;;;;22.75;56.94;99967.94;5052601;28;20090;-88
2022/07/10 02:34:07;;;;;;;6.35;2.83;;;;;;;22.80;56.38;99975.53;5055578;28;20056;-88
2022/07/10 02:36:33;;;;;;;3.20;2.60;;;;;;;22.79;56.01;99984.78;5055461;28;20025;-88
2022/07/10 02:38:58;;;;;;;6.80;2.80;;;;;;;22.80;55.25;99996.59;5055986;28;20049;-88
2022/07/10 02:41:24;;;;;;;5.13;3.25;;;;;;;22.85;55.30;100003.09;5053529;28;20105;-88
2022/07/10 02:43:49;;;;;;;10.25;3.28;;;;;;;22.88;55.13;100010.06;5055560;28;20091;-88
2022/07/10 02:46:15;;;;;;;10.95;2.92;;;;;;;22.92;54.54;100012.16;5055991;28;20021;-88
2022/07/10 02:48:40;;;;;;;11.13;3.67;;;;;;;22.91;54.48;100002.22;5056278;28;20032;-87
2022/07/10 02:51:05;;;;;;;5.85;3.53;;;;;;;22.88;54.48;100027.34;5056167;28;20029;-87
2022/07/10 02:53:31;;;;;;;11.73;3.03;;;;;;;22.94;53.87;100031.13;5057828;28;20057;-87
2022/07/10 02:55:57;;;;;;;8.40;3.30;;;;;;;22.82;53.93;100013.66;5057471;28;20036;-87
2022/07/10 02:58:22;;;;;;;4.63;2.67;;;;;;;22.94;54.05;100028.38;5056554;28;20029;-86
2022/07/10 03:00:48;;;;;;;14.88;3.50;;;;;;;22.94;53.36;100028.38;5057281;28;20036;-87
2022/07/10 03:03:14;;;;;;;7.78;3.35;;;;;;;22.95;53.75;100025.44;5074994;28;20025;-87
2022/07/10 03:05:39;;;;;;;7.22;4.18;;;;;;;23.01;53.71;100023.69;5073258;28;20052;-88
2022/07/10 03:08:05;;;;;;;8.45;3.85;;;;;;;23.01;53.65;100015.47;5071381;28;20036;-87
2022/07/10 03:10:30;;;;;;;4.55;2.85;;;;;;;23.02;53.59;100028.13;5058445;28;20394;-88
2022/07/10 03:12:55;;;;;;;12.05;3.17;;;;;;;23.09;53.21;100024.28;5055646;28;20020;-88
2022/07/10 03:15:21;;;;;;;7.38;3.42;;;;;;;23.04;52.95;100039.72;5055522;28;20040;-88
2022/07/10 03:17:46;;;;;;;18.58;7.97;;;;;;;23.01;52.71;100012.72;5055374;28;20107;-88
2022/07/10 03:20:12;;;;;;;8.52;3.10;;;;;;;23.07;52.65;100022.81;5055113;28;20032;-84
2022/07/10 03:22:38;;;;;;;15.00;6.47;;;;;;;23.06;52.55;100023.88;5055472;28;20024;-85
2022/07/10 03:25:04;;;;;;;8.38;4.75;;;;;;;23.04;52.26;100018.63;5055334;28;20009;-83
2022/07/10 03:27:29;;;;;;;11.20;3.20;;;;;;;23.03;52.61;100016.94;5055307;28;20124;-84
2022/07/10 03:29:55;;;;;;;5.10;3.15;;;;;;;23.05;52.57;100022.22;5055061;28;20021;-83
2022/07/10 03:32:20;;;;;;;11.45;3.75;;;;;;;23.01;52.90;100020.97;5055283;28;20475;-83
2022/07/10 03:34:46;;;;;;;11.05;3.00;;;;;;;22.92;52.85;100017.63;5054908;28;20040;-82
2022/07/10 03:37:11;;;;;;;11.05;3.38;;;;;;;23.04;52.70;100017.78;5055222;28;20497;-83
2022/07/10 03:39:37;;;;;;;5.30;3.38;;;;;;;23.11;52.54;100002.13;5054963;28;20550;-83
2022/07/10 03:42:02;;;;;;;17.13;5.25;;;;;;;23.17;52.42;100014.97;5055643;28;20108;-82
2022/07/10 03:44:28;;;;;;;17.13;5.75;;;;;;;23.13;52.65;100016.44;5054493;28;20025;-83
2022/07/10 03:46:53;;;;;;;23.85;7.32;;;;;;;23.19;52.75;100012.81;5054614;28;20031;-82
2022/07/10 03:49:19;;;;;;;6.28;3.22;;;;;;;23.25;52.04;100017.41;5054814;28;20028;-83
2022/07/10 03:51:44;;;;;;;8.27;3.83;;;;;;;23.24;52.15;100030.28;5059433;28;20025;-82
2022/07/10 03:54:10;;;;;;;10.00;3.17;;;;;;;23.22;52.15;100024.19;5064628;28;20068;-84
2022/07/10 03:59:19;;;;;;;7.25;3.25;;;;;;;23.22;52.13;100005.00;5059947;28;20661;-83
2022/07/10 04:01:44;;;;;;;17.05;4.13;;;;;;;23.29;52.14;100019.53;5063545;28;20084;-84
2022/07/10 04:04:10;;;;;;;5.15;2.78;;;;;;;23.29;51.63;100018.66;5055733;28;20032;-83
2022/07/10 04:06:38;;;;;;;15.80;3.40;;;;;;;23.22;51.93;100010.47;5055040;28;20101;-84
2022/07/10 04:09:04;;;;;;;5.53;3.00;;;;;;;23.33;51.69;100008.94;5054421;28;20029;-84
2022/07/10 04:11:30;;;;;;;3.25;2.50;;;;;;;23.33;51.57;100016.31;5054450;28;20410;-85
2022/07/10 04:13:56;;;;;;;7.18;2.95;;;;;;;23.38;51.35;100011.00;5054816;28;20062;-85
2022/07/10 04:16:22;;;;;;;16.67;3.47;;;;;;;23.44;51.23;100010.13;5053937;28;20550;-83
2022/07/10 04:18:48;;;;;;;7.95;3.17;;;;;;;23.42;51.17;100006.78;5053977;28;20498;-84
2022/07/10 04:21:13;;;;;;;4.78;3.47;;;;;;;23.45;50.36;100009.94;5054518;28;20028;-84
2022/07/10 04:23:39;;;;;;;11.38;3.95;;;;;;;23.41;50.45;100010.59;5055245;28;20050;-85
2022/07/10 04:26:05;;;;;;;12.80;5.20;;;;;;;23.37;50.71;100021.13;5054567;28;20017;-85
2022/07/10 04:28:30;;;;;;;6.32;3.25;;;;;;;23.41;50.02;100005.94;5055796;28;20029;-84
2022/07/10 04:30:56;;;;;;;6.15;3.15;;;;;;;23.37;49.32;100021.13;5061174;28;20032;-83
2022/07/10 04:33:21;;;;;;;5.65;3.47;;;;;;;23.33;49.85;100016.31;5063642;28;20113;-84
2022/07/10 04:35:46;;;;;;;6.82;3.00;;;;;;;23.38;49.85;100017.34;5061379;28;20049;-81
2022/07/10 04:38:12;;;;;;;11.32;3.53;;;;;;;23.45;50.10;100017.31;5092103;28;20029;-83
2022/07/10 04:40:37;;;;;;;6.78;3.70;;;;;;;23.46;49.66;100008.84;5053605;28;20021;-84
2022/07/10 04:43:03;;;;;;;8.95;3.80;;;;;;;23.55;48.84;100013.00;5053941;28;20100;-85
2022/07/10 04:45:28;;;;;;;9.52;4.32;;;;;;;23.49;48.25;100011.16;5053707;28;20025;-84
2022/07/10 04:47:54;;;;;;;4.55;3.20;;;;;;;23.53;48.50;100008.81;5051415;28;20116;-77
2022/07/10 04:50:19;;;;;;;8.57;2.80;;;;;;;23.61;48.34;100003.88;5052500;28;20111;-77
2022/07/10 04:52:44;;;;;;;4.07;2.80;;;;;;;23.69;48.04;100024.72;5052140;28;20021;-78
2022/07/10 04:55:10;;;;;;;5.47;2.95;;;;;;;23.74;47.47;100016.63;5052146;28;20021;-79
2022/07/10 04:57:35;;;;;;;10.63;3.05;;;;;;;23.78;47.40;100024.22;5052155;28;20029;-78
2022/07/10 05:00:07;;;;;;;9.05;3.00;;;;;;;23.82;47.18;100030.91;5052095;28;20052;-78
2022/07/10 05:02:36;;;;;;;;;;;;;;;23.89;46.66;100028.13;5052677;28;20025;-76
2022/07/10 05:05:02;;;;;;;6.90;2.92;;;;;;;23.88;47.11;100028.38;5051683;28;20286;-75
2022/07/10 05:07:27;;;;;;;6.30;2.95;;;;;;;23.91;47.08;100027.91;5051911;28;20029;-76
2022/07/10 05:09:54;;;;;;;7.05;3.80;;;;;;;23.97;47.02;100043.50;5051840;28;20458;-77
2022/07/10 05:12:19;;;;;;;8.25;3.47;;;;;;;24.07;46.94;100039.13;5051796;28;20024;-76
2022/07/10 05:14:45;;;;;;;5.18;2.72;;;;;;;24.10;47.21;100043.34;5051621;28;20037;-77
2022/07/10 05:17:10;;;;;;;4.28;2.65;;;;;;;24.17;46.82;100052.41;5049748;28;20024;-76
2022/07/10 05:19:35;;;;;;;5.85;4.00;;;;;;;24.13;46.45;100034.66;5049622;28;20033;-76
2022/07/10 05:22:01;;;;;;;10.30;4.05;;;;;;;24.15;46.70;100040.81;5050892;28;20055;-75
2022/07/10 05:24:26;;;;;;;9.20;3.13;;;;;;;;;;5051115;28;20029;-76
2022/07/10 05:26:52;;;;;;;6.28;2.88;;;;;;;24.44;46.71;100056.53;5051326;28;20031;-76
2022/07/10 05:29:17;;;;;;;7.55;3.00;;;;;;;24.54;46.72;100056.84;5051137;28;20033;-76
2022/07/10 05:31:44;;;;;;;6.55;3.00;;;;;;;24.44;46.27;100034.53;5050320;28;20024;-76
2022/07/10 05:34:09;;;;;;;7.43;3.10;;;;;;;24.55;46.42;100063.19;5050394;28;20075;-76
2022/07/10 05:36:34;;;;;;;11.48;2.95;;;;;;;24.65;45.63;100064.31;5050306;28;20053;-75
2022/07/10 05:39:00;;;;;;;10.93;3.22;;;;;;;24.63;45.66;100069.22;5050544;28;20024;-76
2022/07/10 05:41:25;;;;;;;12.88;2.85;;;;;;;24.65;45.59;100072.56;5050631;28;20098;-76
2022/07/10 05:43:51;;;;;;;15.35;3.20;;;;;;;24.66;46.19;100070.66;5050327;28;20028;-76
2022/07/10 05:46:16;;;;;;;7.80;2.80;;;;;;;24.70;45.65;100067.25;5050423;28;20036;-76
2022/07/10 05:48:43;;;;;;;6.20;3.58;;;;;;;24.75;45.89;100074.78;5050578;28;20025;-76
2022/07/10 05:51:09;;;;;;;9.60;3.05;;;;;;;24.74;45.82;100068.44;5050490;28;20020;-77
2022/07/10 05:53:34;;;;;;;8.38;2.65;;;;;;;24.66;45.89;100066.03;5050565;28;20025;-76
2022/07/10 05:56:01;;;;;;;5.97;3.35;;;;;;;24.52;46.06;100047.16;5050884;28;20033;-77
2022/07/10 05:58:26;;;;;;;11.45;3.38;;;;;;;24.77;46.57;100056.13;5050613;28;20524;-77
2022/07/10 06:00:52;;;;;;;6.05;3.10;;;;;;;24.68;47.02;100033.63;5053163;28;20060;-76
2022/07/10 06:03:17;;;;;;;10.90;3.03;;;;;;;24.87;46.95;100056.47;5054724;28;20025;-76
2022/07/10 06:05:43;;;;;;;11.90;3.65;;;;;;;24.87;46.89;100040.81;5050786;28;20032;-76
2022/07/10 06:08:10;;;;;;;5.97;3.00;;;;;;;24.91;46.95;100049.44;5051022;28;20469;-76
2022/07/10 06:10:36;;;;;;;5.63;3.60;;;;;;;24.87;46.61;100046.31;5050474;28;20028;-77
2022/07/10 06:13:01;;;;;;;7.72;3.40;;;;;;;24.82;46.51;100035.19;5049125;28;20044;-77
2022/07/10 06:15:27;;;;;;;7.30;3.20;;;;;;;24.96;46.00;100055.09;5050332;28;20076;-77
2022/07/10 06:17:52;;;;;;;5.75;3.10;;;;;;;24.81;46.27;100051.91;5052190;28;20068;-76
2022/07/10 06:20:17;;;;;;;7.30;2.80;;;;;;;24.83;46.25;100063.53;5054095;28;20098;-75
2022/07/10 06:22:43;;;;;;;6.68;2.97;;;;;;;24.78;46.24;100052.31;5054258;28;20031;-76
2022/07/10 06:25:09;;;;;;;9.65;3.72;;;;;;;24.76;46.31;100049.81;5052702;28;20021;-75
2022/07/10 06:27:35;;;;;;;4.07;2.83;;;;;;;24.65;46.12;100036.81;5054272;28;20143;-76
2022/07/10 06:30:00;;;;;;;6.30;3.00;;;;;;;24.77;46.39;100056.97;5054174;28;20032;-78
2022/07/10 06:32:26;;;;;;;13.35;3.03;;;;;;;24.77;46.21;100051.47;5054524;28;20107;-78
2022/07/10 06:34:53;;;;;;;7.60;3.15;;;;;;;24.85;46.34;100064.97;5054303;28;20549;-77
2022/07/10 06:37:19;;;;;;;6.30;3.15;;;;;;;24.89;45.79;100060.66;5052959;28;20025;-77
2022/07/10 06:39:46;;;;;;;10.50;3.25;;;;;;;24.88;45.83;100055.41;5052887;28;20540;-78
2022/07/10 06:42:12;;;;;;;6.22;3.00;;;;;;;24.89;45.86;100055.16;5054276;28;20025;-78
2022/07/10 06:44:37;;;;;;;10.40;3.40;;;;;;;24.94;46.06;100050.88;5053851;28;20158;-77
2022/07/10 06:49:49;;;;;;;16.77;10.40;;;;;;;25.04;45.21;100059.44;5054883;28;20095;-77
2022/07/10 06:52:15;;;;;;;130.55;71.40;;;;;;;25.06;45.02;100054.53;5058657;28;20102;-77
2022/07/10 06:54:41;;;;;;;20.50;12.90;;;;;;;25.13;45.35;100055.28;5059347;28;20145;-78
2022/07/10 06:57:07;;;;;;;6.57;3.35;;;;;;;25.20;45.08;100056.00;5054104;28;20066;-78
2022/07/10 06:59:33;;;;;;;10.20;3.53;;;;;;;25.34;45.01;100052.00;5053925;28;20025;-77
2022/07/10 07:01:59;;;;;;;10.70;3.88;;;;;;;25.45;44.90;100045.69;5054772;28;20020;-75
2022/07/10 07:04:24;;;;;;;15.02;8.32;;;;;;;25.50;44.44;100039.53;5053791;28;20021;-75
2022/07/10 07:06:50;;;;;;;15.70;3.58;;;;;;;25.58;43.47;100042.75;5054072;28;20732;-75
2022/07/10 07:09:15;;;;;;;9.95;5.95;;;;;;;25.61;43.77;100042.28;5053703;28;20114;-75
2022/07/10 07:11:41;;;;;;;13.48;6.18;;;;;;;25.71;43.86;100053.56;5053960;28;20110;-75
2022/07/10 07:14:06;;;;;;;17.10;9.25;;;;;;;25.79;43.18;100038.59;5053321;28;20471;-75
2022/07/10 07:17:06;;;;;;;5.55;3.20;;;;;;;25.81;43.16;100042.78;5053320;28;20024;-76
2022/07/10 07:19:30;;;;;;;7.20;4.60;;;;;;;25.81;43.31;100029.00;5052043;28;20041;-75
2022/07/10 07:24:54;;;;;;;22.35;6.40;;;;;;;25.98;43.02;100032.75;5033476;28;20117;-75
2022/07/10 07:27:19;;;;;;;8.10;3.60;;;;;;;25.99;42.44;100037.16;5053208;28;20085;-75
2022/07/10 07:29:45;;;;;;;11.82;4.72;;;;;;;25.99;42.33;100039.91;5052846;28;20025;-74
2022/07/10 07:32:10;;;;;;;12.57;6.57;;;;;;;26.06;42.67;100041.72;5053112;28;20098;-75
2022/07/10 07:34:35;;;;;;;3.90;2.80;;;;;;;26.11;42.47;100048.22;5053140;28;20392;-75
2022/07/10 07:37:01;;;;;;;11.52;3.83;;;;;;;26.13;42.54;100040.53;5053241;28;20020;-76
2022/07/10 07:39:26;;;;;;;6.78;3.95;;;;;;;26.24;42.25;100034.19;5053371;28;20027;-73
2022/07/10 07:41:52;;;;;;;10.40;3.47;;;;;;;26.35;41.80;100038.03;5053112;28;20025;-73
2022/07/10 07:44:17;;;;;;;25.30;14.82;;;;;;;26.36;42.03;100034.22;5053243;28;20021;-80
2022/07/10 07:46:43;;;;;;;13.90;7.40;;;;;;;26.52;42.00;100037.03;5053166;28;20024;-77
2022/07/10 07:49:09;;;;;;;6.13;3.20;;;;;;;26.55;42.14;100037.63;5052861;28;20024;-76
2022/07/10 07:51:35;;;;;;;10.63;3.30;;;;;;;26.67;42.02;100036.53;5052377;28;20013;-78
2022/07/10 07:54:00;;;;;;;12.70;4.97;;;;;;;26.79;42.24;100029.03;5052512;28;20040;-77
2022/07/10 07:56:26;;;;;;;9.98;4.00;;;;;;;26.79;42.22;100022.69;5052460;28;20074;-78
2022/07/10 07:58:51;;;;;;;7.95;3.13;;;;;;;26.97;42.44;100031.66;5052462;28;20033;-77
2022/07/10 08:01:19;;;;;;;36.20;8.57;;;;;;;27.06;40.94;100028.53;5051330;28;20505;-77
2022/07/10 08:03:45;;;;;;;64.05;22.92;;;;;;;27.20;40.97;100029.88;5052391;28;20056;-75
2022/07/10 08:06:10;;;;;;;48.50;17.17;;;;;;;27.28;41.03;100015.66;5053557;28;20056;-76
2022/07/10 08:08:36;;;;;;;9.32;3.85;;;;;;;27.48;40.83;100032.66;5052942;28;20527;-75
2022/07/10 08:11:01;;;;;;;11.65;3.25;;;;;;;27.61;40.85;100045.31;5052560;28;20050;-77
2022/07/10 08:13:27;;;;;;;9.93;2.92;;;;;;;27.55;40.34;100038.84;5052720;28;20455;-76
2022/07/10 08:15:52;;;;;;;10.25;2.40;;;;;;;27.53;40.32;100024.44;5052514;28;20096;-77
2022/07/10 08:18:18;;;;;;;5.15;2.45;;;;;;;27.54;40.88;100026.13;5051207;28;20395;-76
2022/07/10 08:20:43;;;;;;;20.35;4.22;;;;;;;27.65;40.07;100035.41;5052063;28;20032;-77
2022/07/10 08:23:09;;;;;;;28.73;5.78;;;;;;;27.66;40.51;100037.94;5052229;28;20040;-78
2022/07/10 08:25:35;;;;;;;14.68;4.43;;;;;;;27.67;40.63;100042.38;5052199;28;20043;-75
2022/07/10 08:28:05;;;;;;;6.03;2.35;;;;;;;27.67;40.52;100030.50;5052217;28;20033;-75
2022/07/10 08:30:31;;;;;;;33.35;9.77;;;;;;;27.73;40.42;100040.53;5052178;28;20051;-75
2022/07/10 08:32:57;;;;;;;7.10;2.78;;;;;;;27.72;39.68;100038.84;5052060;28;20487;-78
2022/07/10 08:35:22;;;;;;;19.67;2.85;;;;;;;27.85;39.74;100055.94;5051831;28;20135;-75
2022/07/10 08:37:48;;;;;;;8.48;3.58;;;;;;;27.87;40.09;100055.69;5052177;28;20017;-76
2022/07/10 08:40:16;;;;;;;9.52;2.92;;;;;;;27.85;40.04;100021.94;5051980;28;20032;-81
2022/07/10 08:42:46;;;;;;;6.07;2.72;;;;;;;28.04;39.40;100045.47;5052295;28;20032;-77
2022/07/10 08:45:13;;;;;;;10.02;3.00;;;;;;;28.01;39.88;100046.78;5052212;28;20434;-78
2022/07/10 08:47:41;;;;;;;9.15;2.83;;;;;;;28.08;39.76;100050.25;5051664;28;20025;-78
2022/07/10 08:50:17;;;;;;;6.13;2.75;;;;;;;28.00;39.87;100036.84;5052068;28;20443;-76
2022/07/10 08:52:53;;;;;;;6.38;3.47;;;;;;;28.12;39.97;100066.34;5051896;28;20364;-80
2022/07/10 08:55:21;;;;;;;18.80;3.08;;;;;;;27.96;40.07;100038.44;5051792;28;20036;-79
2022/07/10 08:57:50;;;;;;;7.25;2.60;;;;;;;28.14;40.95;100053.09;5051721;28;20036;-76
2022/07/10 09:00:16;;;;;;;5.60;2.55;;;;;;;28.17;40.58;100055.34;5051659;28;20086;-76
2022/07/10 09:02:42;;;;;;;7.18;2.47;;;;;;;28.22;39.76;100042.47;5051217;28;20025;-77
2022/07/10 09:05:08;;;;;;;3.80;2.50;;;;;;;28.30;39.51;100043.94;5051081;28;20047;-79
2022/07/10 09:07:38;;;;;;;5.72;2.15;;;;;;;28.37;39.45;100052.91;5049885;28;20064;-79
2022/07/10 09:10:08;;;;;;;8.73;2.85;;;;;;;28.33;39.51;100041.50;5051210;28;20029;-77
2022/07/10 09:12:50;;;;;;;18.63;6.50;;;;;;;28.46;39.76;100051.38;5053183;28;20079;-76
2022/07/10 09:15:18;;;;;;;12.20;4.95;;;;;;;28.56;38.76;100046.00;5056372;28;20028;-80
2022/07/10 09:17:58;;;;;;;14.93;2.67;;;;;;;28.61;38.67;100043.28;5055964;28;20112;-78
2022/07/10 09:20:40;;;;;;;13.38;5.00;;;;;;;28.57;38.46;100039.34;5051826;28;20024;-89
2022/07/10 09:23:15;;;;;;;9.05;3.08;;;;;;;28.77;38.83;100047.97;5051913;28;20028;-83
2022/07/10 09:25:40;;;;;;;12.25;3.65;;;;;;;28.77;37.60;100036.88;5053331;28;20029;-83
2022/07/10 09:28:06;;;;;;;9.38;3.17;;;;;;;28.79;37.74;100043.00;5052847;28;20059;-82
2022/07/10 09:30:36;;;;;;;26.02;8.48;;;;;;;28.77;37.84;100039.66;5052465;28;20029;-83
2022/07/10 09:33:25;;;;;;;15.20;6.25;;;;;;;28.76;38.81;100035.19;5052635;28;20025;-84
2022/07/10 09:36:05;;;;;;;3.17;2.60;;;;;;;28.73;39.01;100021.88;5052905;28;20071;-83
2022/07/10 09:38:42;;;;;;;4.57;2.30;;;;;;;28.86;38.28;100024.25;5068688;28;20029;-79
2022/07/10 09:41:22;;;;;;;9.68;2.95;;;;;;;28.86;37.11;100035.34;5053925;28;20032;-85
2022/07/10 09:43:58;;;;;;;6.28;2.58;;;;;;;28.88;37.27;100026.75;5052736;28;20028;-79
2022/07/10 09:46:26;;;;;;;3.58;2.03;;;;;;;28.96;36.82;100018.81;5051253;28;20096;-79
2022/07/10 09:49:02;;;;;;;7.25;2.67;;;;;;;29.09;36.58;100023.97;5051393;28;20028;-79
2022/07/10 09:51:47;;;;;;;8.23;2.35;;;;;;;29.20;36.67;100007.47;5052966;28;20045;-79
2022/07/10 09:54:13;;;;;;;8.23;2.45;;;;;;;29.22;36.42;100000.56;5055493;28;20052;-76
2022/07/10 09:56:42;;;;;;;13.77;3.33;;;;;;;29.28;36.91;100007.84;5055776;28;20467;-78
2022/07/10 09:59:10;;;;;;;4.28;2.38;;;;;;;29.23;37.26;100006.94;5053943;28;20051;-78
2022/07/10 10:01:39;;;;;;;7.60;2.72;;;;;;;29.09;37.09;100003.72;5055049;28;20396;-78
2022/07/10 10:04:06;;;;;;;8.02;1.83;;;;;;;29.00;37.06;99997.00;5056499;28;20471;-78
2022/07/10 10:06:33;;;;;;;4.68;3.08;;;;;;;29.06;36.36;100012.56;5056778;28;20056;-76
2022/07/10 10:09:38;;;;;;;6.15;2.20;;;;;;;29.16;35.51;100012.69;5056264;28;20020;-78
2022/07/10 10:12:24;;;;;;;9.48;3.13;;;;;;;29.15;34.99;99998.00;5049170;28;20062;-76
2022/07/10 10:14:49;;;;;;;4.80;1.95;;;;;;;29.17;34.98;100006.88;5055344;28;20029;-80
2022/07/10 10:17:17;;;;;;;13.30;2.20;;;;;;;29.15;34.60;100000.75;5053988;28;20724;-81
2022/07/10 10:22:30;;;;;;;7.38;2.53;;;;;;;29.44;34.12;100000.53;5055086;28;20044;-79
2022/07/10 10:24:57;;;;;;;5.05;2.33;;;;;;;29.48;34.16;100007.22;5054956;28;20025;-75
2022/07/10 10:27:23;;;;;;;4.97;2.08;;;;;;;29.63;34.10;100007.34;5053742;28;20036;-76
2022/07/10 10:29:51;;;;;;;5.32;1.88;;;;;;;29.75;33.52;100001.63;5054310;28;20467;-75
2022/07/10 10:32:16;;;;;;;3.78;2.30;;;;;;;29.85;33.22;99991.44;5054297;28;20087;-76
2022/07/10 10:34:57;;;;;;;6.05;2.30;;;;;;;29.94;32.85;100006.50;5053870;28;20057;-76
2022/07/10 10:37:36;;;;;;;5.60;1.77;;;;;;;29.99;32.51;100006.53;5058439;28;20044;-76
2022/07/10 10:40:02;;;;;;;4.47;1.40;;;;;;;30.08;32.62;99991.06;5054272;28;20039;-77
2022/07/10 10:42:46;;;;;;;4.35;2.17;;;;;;;30.32;32.74;99998.97;5054159;28;20033;-78
2022/07/10 10:45:32;;;;;;;5.03;2.47;;;;;;;30.28;33.18;99981.19;5054804;28;20028;-76
2022/07/10 10:48:02;;;;;;;10.30;2.13;;;;;;;30.47;33.28;99996.31;5057493;28;20028;-77
2022/07/10 10:50:40;;;;;;;22.80;2.20;;;;;;;30.53;33.03;99984.97;5056212;28;20077;-76
2022/07/10 10:53:22;;;;;;;3.08;1.80;;;;;;;30.79;32.93;100005.34;5053938;28;20063;-77
2022/07/10 10:56:00;;;;;;;7.50;2.00;;;;;;;30.90;32.26;100001.47;5052325;28;20025;-76
2022/07/10 10:58:36;;;;;;;4.60;1.67;;;;;;;30.88;32.73;99995.38;5053567;28;20041;-76
2022/07/10 11:01:20;;;;;;;5.50;2.13;;;;;;;30.96;32.45;99991.25;5053536;28;20132;-77
2022/07/10 11:04:05;;;;;;;8.27;2.10;;;;;;;30.96;32.56;99999.56;5052605;28;20137;-76
2022/07/10 11:06:44;;;;;;;3.60;1.50;;;;;;;31.01;31.47;99997.63;5053436;28;20047;-77
2022/07/10 11:09:30;;;;;;;2.53;1.58;;;;;;;30.89;31.69;99977.56;5053602;28;20098;-77
2022/07/10 11:12:05;;;;;;;19.30;3.13;;;;;;;31.14;31.87;99985.16;5053422;28;20036;-77
2022/07/10 11:14:33;;;;;;;1.80;1.70;;;;;;;31.20;30.34;99979.34;5053257;28;20037;-77
2022/07/10 11:16:59;;;;;;;3.08;2.15;;;;;;;31.29;30.44;99977.69;5053249;28;20554;-77
2022/07/10 11:19:28;;;;;;;8.55;1.27;;;;;;;31.33;30.54;99966.84;5053306;28;20099;-76
2022/07/10 11:22:11;;;;;;;5.80;2.45;;;;;;;31.47;30.42;99983.81;5052022;28;20035;-77
2022/07/10 11:24:51;;;;;;;5.82;3.35;;;;;;;31.56;30.43;99993.31;5051759;28;20032;-79
2022/07/10 11:27:25;;;;;;;8.32;3.35;;;;;;;31.72;30.66;99969.94;5053418;28;20120;-76
2022/07/10 11:29:58;;;;;;;6.38;1.85;;;;;;;31.80;29.27;99959.06;5053132;28;20037;-75
2022/07/10 11:32:24;;;;;;;6.00;1.75;;;;;;;31.92;28.71;99992.19;5053262;28;20040;-77
2022/07/10 11:34:50;;;;;;;3.30;1.77;;;;;;;31.83;28.65;99989.13;5051722;28;20194;-78
2022/07/10 11:37:16;;;;;;;9.90;3.33;;;;;;;31.82;28.50;99978.28;5053066;28;20116;-75
2022/07/10 11:39:43;;;;;;;8.77;1.98;;;;;;;31.88;28.76;99985.50;5053112;28;20103;-76